sensor_id;sensor_type;location;lat;lon;timestamp;P1;durP1;ratioP1;P2;durP2;ratioP2
6027;SDS011;3042;43.194;27.646;2023-03-23T00:01:00;24.30;;;22.70;;
6027;SDS011;3042;43.194;27.646;2023-03-23T00:03:27;22.93;;;21.43;;
6027;SDS011;3042;43.194;27.646;2023-03-23T00:05:56;21.63;;;20.33;;
6027;SDS011;3042;43.194;27.646;2023-03-23T00:08:25;31.43;;;28.43;;
6027;SDS011;3042;43.194;27.646;2023-03-23T00:10:52;23.27;;;21.67;;
6027;SDS011;3042;43.194;27.646;2023-03-23T00:13:22;24.60;;;22.90;;
6027;SDS011;3042;43.194;27.646;2023-03-23T00:15:49;23.97;;;22.40;;
6027;SDS011;3042;43.194;27.646;2023-03-23T00:18:19;23.80;;;22.03;;
6027;SDS011;3042;43.194;27.646;2023-03-23T00:20:49;25.87;;;24.07;;
6027;SDS011;3042;43.194;27.646;2023-03-23T00:23:18;23.40;;;22.00;;
6027;SDS011;3042;43.194;27.646;2023-03-23T00:25:46;24.57;;;23.03;;
6027;SDS011;3042;43.194;27.646;2023-03-23T00:28:14;24.50;;;23.07;;
6027;SDS011;3042;43.194;27.646;2023-03-23T00:30:42;24.27;;;22.83;;
6027;SDS011;3042;43.194;27.646;2023-03-23T00:33:09;27.97;;;25.77;;
6027;SDS011;3042;43.194;27.646;2023-03-23T00:35:40;23.40;;;22.00;;
6027;SDS011;3042;43.194;27.646;2023-03-23T00:38:09;24.10;;;22.50;;
6027;SDS011;3042;43.194;27.646;2023-03-23T00:40:36;23.70;;;22.20;;
6027;SDS011;3042;43.194;27.646;2023-03-23T00:43:03;24.60;;;22.80;;
6027;SDS011;3042;43.194;27.646;2023-03-23T00:45:30;23.77;;;22.27;;
6027;SDS011;3042;43.194;27.646;2023-03-23T00:48:00;22.83;;;21.53;;
6027;SDS011;3042;43.194;27.646;2023-03-23T00:50:30;22.70;;;21.30;;
6027;SDS011;3042;43.194;27.646;2023-03-23T00:52:58;24.47;;;22.87;;
6027;SDS011;3042;43.194;27.646;2023-03-23T00:55:25;27.80;;;25.90;;
6027;SDS011;3042;43.194;27.646;2023-03-23T00:57:52;25.37;;;23.77;;
6027;SDS011;3042;43.194;27.646;2023-03-23T01:00:19;26.30;;;24.40;;
6027;SDS011;3042;43.194;27.646;2023-03-23T01:02:47;23.27;;;21.77;;
6027;SDS011;3042;43.194;27.646;2023-03-23T01:05:16;22.30;;;20.97;;
6027;SDS011;3042;43.194;27.646;2023-03-23T01:07:44;22.43;;;21.13;;
6027;SDS011;3042;43.194;27.646;2023-03-23T01:10:13;23.47;;;22.00;;
6027;SDS011;3042;43.194;27.646;2023-03-23T01:12:43;23.03;;;21.60;;
6027;SDS011;3042;43.194;27.646;2023-03-23T01:15:14;23.57;;;22.17;;
6027;SDS011;3042;43.194;27.646;2023-03-23T01:17:42;23.20;;;21.53;;
6027;SDS011;3042;43.194;27.646;2023-03-23T01:20:10;23.27;;;21.97;;
6027;SDS011;3042;43.194;27.646;2023-03-23T01:22:39;23.43;;;21.93;;
6027;SDS011;3042;43.194;27.646;2023-03-23T01:25:09;23.97;;;22.17;;
6027;SDS011;3042;43.194;27.646;2023-03-23T01:27:38;25.07;;;23.13;;
6027;SDS011;3042;43.194;27.646;2023-03-23T01:30:07;27.33;;;25.43;;
6027;SDS011;3042;43.194;27.646;2023-03-23T01:32:37;26.57;;;24.67;;
6027;SDS011;3042;43.194;27.646;2023-03-23T01:35:04;25.73;;;23.83;;
6027;SDS011;3042;43.194;27.646;2023-03-23T01:37:32;22.23;;;20.90;;
6027;SDS011;3042;43.194;27.646;2023-03-23T01:39:59;22.70;;;21.40;;
6027;SDS011;3042;43.194;27.646;2023-03-23T01:42:29;22.10;;;20.90;;
6027;SDS011;3042;43.194;27.646;2023-03-23T01:47:53;24.40;;;23.10;;
6027;SDS011;3042;43.194;27.646;2023-03-23T01:50:34;26.53;;;24.73;;
6027;SDS011;3042;43.194;27.646;2023-03-23T01:53:06;22.77;;;21.53;;
6027;SDS011;3042;43.194;27.646;2023-03-23T01:55:37;22.20;;;20.80;;
6027;SDS011;3042;43.194;27.646;2023-03-23T01:58:06;24.90;;;23.30;;
6027;SDS011;3042;43.194;27.646;2023-03-23T02:00:36;21.90;;;20.70;;
6027;SDS011;3042;43.194;27.646;2023-03-23T02:03:07;23.17;;;21.87;;
6027;SDS011;3042;43.194;27.646;2023-03-23T02:05:39;23.00;;;21.40;;
6027;SDS011;3042;43.194;27.646;2023-03-23T02:08:07;31.03;;;28.27;;
6027;SDS011;3042;43.194;27.646;2023-03-23T02:10:37;25.77;;;23.83;;
6027;SDS011;3042;43.194;27.646;2023-03-23T02:13:04;24.60;;;22.90;;
6027;SDS011;3042;43.194;27.646;2023-03-23T02:15:39;28.97;;;26.87;;
6027;SDS011;3042;43.194;27.646;2023-03-23T02:18:14;27.60;;;25.57;;
6027;SDS011;3042;43.194;27.646;2023-03-23T02:20:56;25.73;;;24.03;;
6027;SDS011;3042;43.194;27.646;2023-03-23T02:23:46;26.27;;;24.27;;
6027;SDS011;3042;43.194;27.646;2023-03-23T02:26:35;37.80;;;34.30;;
6027;SDS011;3042;43.194;27.646;2023-03-23T02:32:19;28.33;;;26.30;;
6027;SDS011;3042;43.194;27.646;2023-03-23T02:35:04;26.00;;;24.30;;
6027;SDS011;3042;43.194;27.646;2023-03-23T02:37:36;23.00;;;21.50;;
6027;SDS011;3042;43.194;27.646;2023-03-23T02:40:07;33.10;;;30.27;;
6027;SDS011;3042;43.194;27.646;2023-03-23T02:42:39;31.83;;;29.07;;
6027;SDS011;3042;43.194;27.646;2023-03-23T02:45:10;30.33;;;27.93;;
6027;SDS011;3042;43.194;27.646;2023-03-23T02:47:39;26.33;;;24.13;;
6027;SDS011;3042;43.194;27.646;2023-03-23T02:50:12;28.27;;;26.27;;
6027;SDS011;3042;43.194;27.646;2023-03-23T02:52:41;28.20;;;26.30;;
6027;SDS011;3042;43.194;27.646;2023-03-23T02:55:11;26.90;;;25.10;;
6027;SDS011;3042;43.194;27.646;2023-03-23T02:57:38;25.40;;;23.60;;
6027;SDS011;3042;43.194;27.646;2023-03-23T03:00:06;25.23;;;23.43;;
6027;SDS011;3042;43.194;27.646;2023-03-23T03:02:36;27.70;;;25.80;;
6027;SDS011;3042;43.194;27.646;2023-03-23T03:05:08;33.90;;;31.30;;
6027;SDS011;3042;43.194;27.646;2023-03-23T03:07:49;26.30;;;24.50;;
6027;SDS011;3042;43.194;27.646;2023-03-23T03:10:30;28.30;;;26.40;;
6027;SDS011;3042;43.194;27.646;2023-03-23T03:13:05;25.40;;;23.60;;
6027;SDS011;3042;43.194;27.646;2023-03-23T03:15:40;25.37;;;23.67;;
6027;SDS011;3042;43.194;27.646;2023-03-23T03:18:12;28.63;;;26.57;;
6027;SDS011;3042;43.194;27.646;2023-03-23T03:20:45;26.83;;;25.07;;
6027;SDS011;3042;43.194;27.646;2023-03-23T03:23:15;25.70;;;23.83;;
6027;SDS011;3042;43.194;27.646;2023-03-23T03:25:43;25.30;;;23.70;;
6027;SDS011;3042;43.194;27.646;2023-03-23T03:28:13;29.80;;;27.50;;
6027;SDS011;3042;43.194;27.646;2023-03-23T03:30:46;23.33;;;21.83;;
6027;SDS011;3042;43.194;27.646;2023-03-23T03:33:16;24.17;;;22.50;;
6027;SDS011;3042;43.194;27.646;2023-03-23T03:35:47;26.93;;;24.80;;
6027;SDS011;3042;43.194;27.646;2023-03-23T03:38:15;24.90;;;23.17;;
6027;SDS011;3042;43.194;27.646;2023-03-23T03:40:42;25.57;;;23.87;;
6027;SDS011;3042;43.194;27.646;2023-03-23T03:43:09;25.17;;;23.57;;
6027;SDS011;3042;43.194;27.646;2023-03-23T03:45:36;24.03;;;22.50;;
6027;SDS011;3042;43.194;27.646;2023-03-23T03:48:03;23.83;;;22.43;;
6027;SDS011;3042;43.194;27.646;2023-03-23T03:50:30;22.17;;;20.87;;
6027;SDS011;3042;43.194;27.646;2023-03-23T03:52:59;24.20;;;22.60;;
6027;SDS011;3042;43.194;27.646;2023-03-23T03:55:26;24.17;;;22.77;;
6027;SDS011;3042;43.194;27.646;2023-03-23T03:57:53;24.40;;;23.00;;
6027;SDS011;3042;43.194;27.646;2023-03-23T04:00:21;24.17;;;22.57;;
6027;SDS011;3042;43.194;27.646;2023-03-23T04:02:49;24.20;;;22.63;;
6027;SDS011;3042;43.194;27.646;2023-03-23T04:05:19;24.63;;;23.13;;
6027;SDS011;3042;43.194;27.646;2023-03-23T04:07:47;22.30;;;21.03;;
6027;SDS011;3042;43.194;27.646;2023-03-23T04:10:18;21.17;;;20.07;;
6027;SDS011;3042;43.194;27.646;2023-03-23T04:12:47;21.73;;;20.63;;
6027;SDS011;3042;43.194;27.646;2023-03-23T04:15:15;22.73;;;21.43;;
6027;SDS011;3042;43.194;27.646;2023-03-23T04:17:42;21.93;;;20.63;;
6027;SDS011;3042;43.194;27.646;2023-03-23T04:20:10;21.33;;;20.13;;
6027;SDS011;3042;43.194;27.646;2023-03-23T04:22:42;22.73;;;21.40;;
6027;SDS011;3042;43.194;27.646;2023-03-23T04:25:10;23.03;;;21.73;;
6027;SDS011;3042;43.194;27.646;2023-03-23T04:27:41;23.90;;;22.50;;
6027;SDS011;3042;43.194;27.646;2023-03-23T04:30:12;24.07;;;22.57;;
6027;SDS011;3042;43.194;27.646;2023-03-23T04:32:39;22.73;;;21.53;;
6027;SDS011;3042;43.194;27.646;2023-03-23T04:35:08;24.10;;;22.60;;
6027;SDS011;3042;43.194;27.646;2023-03-23T04:37:37;23.83;;;22.30;;
6027;SDS011;3042;43.194;27.646;2023-03-23T04:40:06;23.70;;;22.20;;
6027;SDS011;3042;43.194;27.646;2023-03-23T04:42:37;25.67;;;24.13;;
6027;SDS011;3042;43.194;27.646;2023-03-23T04:45:07;26.07;;;24.20;;
6027;SDS011;3042;43.194;27.646;2023-03-23T04:47:35;26.40;;;24.60;;
6027;SDS011;3042;43.194;27.646;2023-03-23T04:50:06;23.47;;;21.97;;
6027;SDS011;3042;43.194;27.646;2023-03-23T04:52:34;23.83;;;22.33;;
6027;SDS011;3042;43.194;27.646;2023-03-23T04:55:06;24.50;;;22.70;;
6027;SDS011;3042;43.194;27.646;2023-03-23T04:57:34;22.10;;;20.80;;
6027;SDS011;3042;43.194;27.646;2023-03-23T05:00:02;23.50;;;22.00;;
6027;SDS011;3042;43.194;27.646;2023-03-23T05:02:36;27.50;;;25.50;;
6027;SDS011;3042;43.194;27.646;2023-03-23T05:05:04;23.83;;;22.23;;
6027;SDS011;3042;43.194;27.646;2023-03-23T05:07:32;24.27;;;22.37;;
6027;SDS011;3042;43.194;27.646;2023-03-23T05:09:59;29.17;;;27.20;;
6027;SDS011;3042;43.194;27.646;2023-03-23T05:12:26;25.93;;;24.33;;
6027;SDS011;3042;43.194;27.646;2023-03-23T05:14:53;25.30;;;23.70;;
6027;SDS011;3042;43.194;27.646;2023-03-23T05:17:20;23.87;;;21.83;;
6027;SDS011;3042;43.194;27.646;2023-03-23T05:19:50;26.03;;;24.03;;
6027;SDS011;3042;43.194;27.646;2023-03-23T05:22:18;25.90;;;23.87;;
6027;SDS011;3042;43.194;27.646;2023-03-23T05:24:46;27.60;;;25.47;;
6027;SDS011;3042;43.194;27.646;2023-03-23T05:27:13;26.77;;;24.87;;
6027;SDS011;3042;43.194;27.646;2023-03-23T05:29:42;25.80;;;24.00;;
6027;SDS011;3042;43.194;27.646;2023-03-23T05:32:11;28.23;;;26.30;;
6027;SDS011;3042;43.194;27.646;2023-03-23T05:34:38;29.90;;;27.60;;
6027;SDS011;3042;43.194;27.646;2023-03-23T05:37:06;26.73;;;24.63;;
6027;SDS011;3042;43.194;27.646;2023-03-23T05:39:34;25.10;;;23.27;;
6027;SDS011;3042;43.194;27.646;2023-03-23T05:42:02;24.90;;;23.10;;
6027;SDS011;3042;43.194;27.646;2023-03-23T05:44:29;25.03;;;22.93;;
6027;SDS011;3042;43.194;27.646;2023-03-23T05:46:56;26.07;;;23.87;;
6027;SDS011;3042;43.194;27.646;2023-03-23T05:49:24;24.97;;;23.00;;
6027;SDS011;3042;43.194;27.646;2023-03-23T05:51:51;27.23;;;24.80;;
6027;SDS011;3042;43.194;27.646;2023-03-23T05:54:20;25.27;;;23.07;;
6027;SDS011;3042;43.194;27.646;2023-03-23T05:56:47;25.53;;;23.50;;
6027;SDS011;3042;43.194;27.646;2023-03-23T05:59:14;27.73;;;25.57;;
6027;SDS011;3042;43.194;27.646;2023-03-23T06:01:41;27.00;;;24.80;;
6027;SDS011;3042;43.194;27.646;2023-03-23T06:04:08;26.80;;;24.70;;
6027;SDS011;3042;43.194;27.646;2023-03-23T06:06:37;28.97;;;26.53;;
6027;SDS011;3042;43.194;27.646;2023-03-23T06:09:04;28.57;;;26.17;;
6027;SDS011;3042;43.194;27.646;2023-03-23T06:11:33;31.43;;;28.87;;
6027;SDS011;3042;43.194;27.646;2023-03-23T06:14:00;29.67;;;27.13;;
6027;SDS011;3042;43.194;27.646;2023-03-23T06:16:28;28.00;;;25.70;;
6027;SDS011;3042;43.194;27.646;2023-03-23T06:18:55;31.87;;;28.97;;
6027;SDS011;3042;43.194;27.646;2023-03-23T06:21:22;33.93;;;31.37;;
6027;SDS011;3042;43.194;27.646;2023-03-23T06:23:49;34.03;;;31.63;;
6027;SDS011;3042;43.194;27.646;2023-03-23T06:26:17;31.93;;;29.60;;
6027;SDS011;3042;43.194;27.646;2023-03-23T06:28:47;30.13;;;27.60;;
6027;SDS011;3042;43.194;27.646;2023-03-23T06:31:14;29.43;;;27.07;;
6027;SDS011;3042;43.194;27.646;2023-03-23T06:33:42;32.43;;;29.80;;
6027;SDS011;3042;43.194;27.646;2023-03-23T06:36:10;31.10;;;28.57;;
6027;SDS011;3042;43.194;27.646;2023-03-23T06:38:37;35.10;;;31.60;;
6027;SDS011;3042;43.194;27.646;2023-03-23T06:41:04;39.40;;;36.30;;
6027;SDS011;3042;43.194;27.646;2023-03-23T06:43:31;37.43;;;34.47;;
6027;SDS011;3042;43.194;27.646;2023-03-23T06:46:02;41.40;;;37.97;;
6027;SDS011;3042;43.194;27.646;2023-03-23T06:48:29;33.07;;;30.30;;
6027;SDS011;3042;43.194;27.646;2023-03-23T06:50:57;33.63;;;30.93;;
6027;SDS011;3042;43.194;27.646;2023-03-23T06:53:24;28.50;;;26.30;;
6027;SDS011;3042;43.194;27.646;2023-03-23T06:55:51;34.17;;;31.33;;
6027;SDS011;3042;43.194;27.646;2023-03-23T06:58:18;31.73;;;29.53;;
6027;SDS011;3042;43.194;27.646;2023-03-23T07:00:46;30.50;;;28.30;;
6027;SDS011;3042;43.194;27.646;2023-03-23T07:03:14;33.10;;;30.00;;
6027;SDS011;3042;43.194;27.646;2023-03-23T07:05:41;39.63;;;36.50;;
6027;SDS011;3042;43.194;27.646;2023-03-23T07:08:12;34.13;;;31.13;;
6027;SDS011;3042;43.194;27.646;2023-03-23T07:10:38;32.67;;;30.17;;
6027;SDS011;3042;43.194;27.646;2023-03-23T07:13:06;35.77;;;32.67;;
6027;SDS011;3042;43.194;27.646;2023-03-23T07:15:33;32.70;;;30.03;;
6027;SDS011;3042;43.194;27.646;2023-03-23T07:18:00;34.43;;;31.83;;
6027;SDS011;3042;43.194;27.646;2023-03-23T07:20:29;30.77;;;27.97;;
6027;SDS011;3042;43.194;27.646;2023-03-23T07:22:56;29.93;;;27.33;;
6027;SDS011;3042;43.194;27.646;2023-03-23T07:25:23;30.97;;;28.47;;
6027;SDS011;3042;43.194;27.646;2023-03-23T07:27:50;32.47;;;29.67;;
6027;SDS011;3042;43.194;27.646;2023-03-23T07:30:17;35.00;;;30.97;;
6027;SDS011;3042;43.194;27.646;2023-03-23T07:32:44;36.53;;;30.23;;
6027;SDS011;3042;43.194;27.646;2023-03-23T07:35:11;33.97;;;31.37;;
6027;SDS011;3042;43.194;27.646;2023-03-23T07:37:40;32.97;;;30.47;;
6027;SDS011;3042;43.194;27.646;2023-03-23T07:40:07;33.73;;;30.63;;
6027;SDS011;3042;43.194;27.646;2023-03-23T07:42:36;34.30;;;31.37;;
6027;SDS011;3042;43.194;27.646;2023-03-23T07:45:03;31.63;;;28.93;;
6027;SDS011;3042;43.194;27.646;2023-03-23T07:47:31;34.53;;;31.30;;
6027;SDS011;3042;43.194;27.646;2023-03-23T07:49:58;33.67;;;30.33;;
6027;SDS011;3042;43.194;27.646;2023-03-23T07:52:25;34.30;;;31.27;;
6027;SDS011;3042;43.194;27.646;2023-03-23T07:54:53;31.50;;;28.03;;
6027;SDS011;3042;43.194;27.646;2023-03-23T07:57:20;36.70;;;33.20;;
6027;SDS011;3042;43.194;27.646;2023-03-23T07:59:47;28.63;;;26.10;;
6027;SDS011;3042;43.194;27.646;2023-03-23T08:02:14;49.27;;;45.23;;
6027;SDS011;3042;43.194;27.646;2023-03-23T08:04:41;26.97;;;24.80;;
6027;SDS011;3042;43.194;27.646;2023-03-23T08:07:09;27.27;;;25.07;;
6027;SDS011;3042;43.194;27.646;2023-03-23T08:09:37;30.80;;;28.00;;
6027;SDS011;3042;43.194;27.646;2023-03-23T08:12:06;34.60;;;25.97;;
6027;SDS011;3042;43.194;27.646;2023-03-23T08:14:33;30.53;;;26.97;;
6027;SDS011;3042;43.194;27.646;2023-03-23T08:17:00;28.00;;;25.53;;
6027;SDS011;3042;43.194;27.646;2023-03-23T08:19:27;28.80;;;25.67;;
6027;SDS011;3042;43.194;27.646;2023-03-23T08:21:55;33.47;;;30.30;;
6027;SDS011;3042;43.194;27.646;2023-03-23T08:24:22;31.77;;;28.77;;
6027;SDS011;3042;43.194;27.646;2023-03-23T08:26:49;37.80;;;28.50;;
6027;SDS011;3042;43.194;27.646;2023-03-23T08:29:17;29.50;;;26.80;;
6027;SDS011;3042;43.194;27.646;2023-03-23T08:31:45;28.30;;;25.80;;
6027;SDS011;3042;43.194;27.646;2023-03-23T08:34:12;29.93;;;26.97;;
6027;SDS011;3042;43.194;27.646;2023-03-23T08:36:40;28.20;;;25.80;;
6027;SDS011;3042;43.194;27.646;2023-03-23T08:39:09;33.30;;;28.43;;
6027;SDS011;3042;43.194;27.646;2023-03-23T08:41:36;30.30;;;27.30;;
6027;SDS011;3042;43.194;27.646;2023-03-23T08:44:03;29.30;;;26.27;;
6027;SDS011;3042;43.194;27.646;2023-03-23T08:46:32;29.27;;;26.67;;
6027;SDS011;3042;43.194;27.646;2023-03-23T08:48:59;44.13;;;28.17;;
6027;SDS011;3042;43.194;27.646;2023-03-23T08:51:26;30.73;;;27.43;;
6027;SDS011;3042;43.194;27.646;2023-03-23T08:53:53;32.17;;;28.77;;
6027;SDS011;3042;43.194;27.646;2023-03-23T08:56:20;36.57;;;32.33;;
6027;SDS011;3042;43.194;27.646;2023-03-23T08:58:47;65.90;;;51.33;;
6027;SDS011;3042;43.194;27.646;2023-03-23T09:01:15;37.37;;;30.90;;
6027;SDS011;3042;43.194;27.646;2023-03-23T09:03:43;34.80;;;31.50;;
6027;SDS011;3042;43.194;27.646;2023-03-23T09:06:11;34.67;;;30.87;;
6027;SDS011;3042;43.194;27.646;2023-03-23T09:08:38;41.43;;;32.50;;
6027;SDS011;3042;43.194;27.646;2023-03-23T09:11:06;40.17;;;30.43;;
6027;SDS011;3042;43.194;27.646;2023-03-23T09:13:34;36.70;;;31.03;;
6027;SDS011;3042;43.194;27.646;2023-03-23T09:16:03;33.50;;;29.97;;
6027;SDS011;3042;43.194;27.646;2023-03-23T09:18:31;40.80;;;30.50;;
6027;SDS011;3042;43.194;27.646;2023-03-23T09:21:01;49.43;;;29.47;;
6027;SDS011;3042;43.194;27.646;2023-03-23T09:23:29;32.50;;;29.10;;
6027;SDS011;3042;43.194;27.646;2023-03-23T09:25:58;38.17;;;34.37;;
6027;SDS011;3042;43.194;27.646;2023-03-23T09:28:26;32.80;;;29.47;;
6027;SDS011;3042;43.194;27.646;2023-03-23T09:30:55;30.20;;;27.40;;
6027;SDS011;3042;43.194;27.646;2023-03-23T09:33:23;29.77;;;26.93;;
6027;SDS011;3042;43.194;27.646;2023-03-23T09:35:51;30.13;;;27.23;;
6027;SDS011;3042;43.194;27.646;2023-03-23T09:38:19;29.80;;;26.73;;
6027;SDS011;3042;43.194;27.646;2023-03-23T09:40:47;29.87;;;26.73;;
6027;SDS011;3042;43.194;27.646;2023-03-23T09:43:31;28.50;;;25.80;;
6027;SDS011;3042;43.194;27.646;2023-03-23T09:46:28;29.33;;;26.73;;
6027;SDS011;3042;43.194;27.646;2023-03-23T09:49:02;29.67;;;26.77;;
6027;SDS011;3042;43.194;27.646;2023-03-23T09:51:39;31.83;;;28.23;;
6027;SDS011;3042;43.194;27.646;2023-03-23T09:54:13;35.23;;;31.53;;
6027;SDS011;3042;43.194;27.646;2023-03-23T09:56:45;32.03;;;28.57;;
6027;SDS011;3042;43.194;27.646;2023-03-23T09:59:14;29.50;;;26.53;;
6027;SDS011;3042;43.194;27.646;2023-03-23T10:01:47;28.47;;;25.90;;
6027;SDS011;3042;43.194;27.646;2023-03-23T10:04:22;30.53;;;27.77;;
6027;SDS011;3042;43.194;27.646;2023-03-23T10:06:57;31.17;;;27.97;;
6027;SDS011;3042;43.194;27.646;2023-03-23T10:09:29;29.83;;;26.80;;
6027;SDS011;3042;43.194;27.646;2023-03-23T10:12:03;30.43;;;27.13;;
6027;SDS011;3042;43.194;27.646;2023-03-23T10:14:50;31.60;;;28.47;;
6027;SDS011;3042;43.194;27.646;2023-03-23T10:17:39;29.50;;;26.50;;
6027;SDS011;3042;43.194;27.646;2023-03-23T10:20:24;32.23;;;27.40;;
6027;SDS011;3042;43.194;27.646;2023-03-23T10:23:24;35.00;;;31.50;;
6027;SDS011;3042;43.194;27.646;2023-03-23T10:26:08;31.00;;;27.67;;
6027;SDS011;3042;43.194;27.646;2023-03-23T10:28:42;30.70;;;27.77;;
6027;SDS011;3042;43.194;27.646;2023-03-23T10:31:11;33.43;;;29.10;;
6027;SDS011;3042;43.194;27.646;2023-03-23T10:33:43;28.50;;;26.00;;
6027;SDS011;3042;43.194;27.646;2023-03-23T10:36:13;31.70;;;28.70;;
6027;SDS011;3042;43.194;27.646;2023-03-23T10:38:44;31.83;;;28.77;;
6027;SDS011;3042;43.194;27.646;2023-03-23T10:41:17;30.00;;;26.80;;
6027;SDS011;3042;43.194;27.646;2023-03-23T10:43:45;33.10;;;27.50;;
6027;SDS011;3042;43.194;27.646;2023-03-23T10:46:26;30.10;;;27.37;;
6027;SDS011;3042;43.194;27.646;2023-03-23T10:48:59;31.60;;;28.70;;
6027;SDS011;3042;43.194;27.646;2023-03-23T10:51:30;29.90;;;27.17;;
6027;SDS011;3042;43.194;27.646;2023-03-23T10:54:01;45.13;;;32.40;;
6027;SDS011;3042;43.194;27.646;2023-03-23T10:56:35;36.00;;;32.37;;
6027;SDS011;3042;43.194;27.646;2023-03-23T10:59:12;31.43;;;28.23;;
6027;SDS011;3042;43.194;27.646;2023-03-23T11:01:43;31.20;;;28.00;;
6027;SDS011;3042;43.194;27.646;2023-03-23T11:04:13;31.07;;;28.07;;
6027;SDS011;3042;43.194;27.646;2023-03-23T11:06:43;33.80;;;29.03;;
6027;SDS011;3042;43.194;27.646;2023-03-23T11:09:15;32.00;;;28.70;;
6027;SDS011;3042;43.194;27.646;2023-03-23T11:11:49;38.37;;;29.90;;
6027;SDS011;3042;43.194;27.646;2023-03-23T11:14:18;42.37;;;31.40;;
6027;SDS011;3042;43.194;27.646;2023-03-23T11:16:50;41.40;;;36.90;;
6027;SDS011;3042;43.194;27.646;2023-03-23T11:19:22;41.60;;;36.50;;
6027;SDS011;3042;43.194;27.646;2023-03-23T11:21:57;40.20;;;34.83;;
6027;SDS011;3042;43.194;27.646;2023-03-23T11:24:31;37.30;;;33.53;;
6027;SDS011;3042;43.194;27.646;2023-03-23T11:27:01;62.27;;;38.10;;
6027;SDS011;3042;43.194;27.646;2023-03-23T11:29:32;39.23;;;35.03;;
6027;SDS011;3042;43.194;27.646;2023-03-23T11:32:02;39.10;;;34.80;;
6027;SDS011;3042;43.194;27.646;2023-03-23T11:34:33;47.80;;;36.13;;
6027;SDS011;3042;43.194;27.646;2023-03-23T11:37:02;39.57;;;35.47;;
6027;SDS011;3042;43.194;27.646;2023-03-23T11:39:32;39.93;;;34.80;;
6027;SDS011;3042;43.194;27.646;2023-03-23T11:42:13;42.20;;;37.43;;
6027;SDS011;3042;43.194;27.646;2023-03-23T11:44:45;41.00;;;36.73;;
6027;SDS011;3042;43.194;27.646;2023-03-23T11:47:15;42.90;;;36.97;;
6027;SDS011;3042;43.194;27.646;2023-03-23T11:49:50;40.90;;;36.57;;
6027;SDS011;3042;43.194;27.646;2023-03-23T11:52:23;45.47;;;37.00;;
6027;SDS011;3042;43.194;27.646;2023-03-23T11:55:00;62.90;;;38.90;;
6027;SDS011;3042;43.194;27.646;2023-03-23T11:57:45;44.87;;;37.77;;
6027;SDS011;3042;43.194;27.646;2023-03-23T12:00:15;41.60;;;35.67;;
6027;SDS011;3042;43.194;27.646;2023-03-23T12:05:38;43.23;;;33.93;;
6027;SDS011;3042;43.194;27.646;2023-03-23T12:08:18;37.00;;;33.33;;
6027;SDS011;3042;43.194;27.646;2023-03-23T12:11:03;40.03;;;35.70;;
6027;SDS011;3042;43.194;27.646;2023-03-23T12:13:45;45.67;;;35.27;;
6027;SDS011;3042;43.194;27.646;2023-03-23T12:16:24;39.07;;;35.37;;
6027;SDS011;3042;43.194;27.646;2023-03-23T12:19:01;43.17;;;35.70;;
6027;SDS011;3042;43.194;27.646;2023-03-23T12:21:36;38.93;;;32.87;;
6027;SDS011;3042;43.194;27.646;2023-03-23T12:24:15;46.57;;;33.57;;
6027;SDS011;3042;43.194;27.646;2023-03-23T12:26:55;35.23;;;31.53;;
6027;SDS011;3042;43.194;27.646;2023-03-23T12:29:38;62.67;;;34.40;;
6027;SDS011;3042;43.194;27.646;2023-03-23T12:32:23;48.40;;;32.20;;
6027;SDS011;3042;43.194;27.646;2023-03-23T12:35:00;35.97;;;32.17;;
6027;SDS011;3042;43.194;27.646;2023-03-23T12:37:47;35.47;;;31.90;;
6027;SDS011;3042;43.194;27.646;2023-03-23T12:40:32;78.23;;;32.73;;
6027;SDS011;3042;43.194;27.646;2023-03-23T12:43:10;35.93;;;32.13;;
6027;SDS011;3042;43.194;27.646;2023-03-23T12:45:51;69.97;;;35.20;;
6027;SDS011;3042;43.194;27.646;2023-03-23T12:48:29;37.47;;;31.73;;
6027;SDS011;3042;43.194;27.646;2023-03-23T12:51:07;157.87;;;39.23;;
6027;SDS011;3042;43.194;27.646;2023-03-23T12:53:41;41.57;;;34.30;;
6027;SDS011;3042;43.194;27.646;2023-03-23T12:56:15;44.63;;;35.97;;
6027;SDS011;3042;43.194;27.646;2023-03-23T12:58:46;44.93;;;34.70;;
6027;SDS011;3042;43.194;27.646;2023-03-23T13:01:18;43.53;;;33.10;;
6027;SDS011;3042;43.194;27.646;2023-03-23T13:03:52;37.53;;;33.57;;
6027;SDS011;3042;43.194;27.646;2023-03-23T13:06:24;40.07;;;35.97;;
6027;SDS011;3042;43.194;27.646;2023-03-23T13:08:58;42.30;;;33.60;;
6027;SDS011;3042;43.194;27.646;2023-03-23T13:11:31;38.67;;;34.60;;
6027;SDS011;3042;43.194;27.646;2023-03-23T13:14:02;43.20;;;33.60;;
6027;SDS011;3042;43.194;27.646;2023-03-23T13:16:41;41.93;;;32.90;;
6027;SDS011;3042;43.194;27.646;2023-03-23T13:19:13;37.00;;;33.30;;
6027;SDS011;3042;43.194;27.646;2023-03-23T13:21:52;46.10;;;36.30;;
6027;SDS011;3042;43.194;27.646;2023-03-23T13:24:26;76.60;;;38.50;;
6027;SDS011;3042;43.194;27.646;2023-03-23T13:26:56;35.03;;;31.73;;
6027;SDS011;3042;43.194;27.646;2023-03-23T13:29:26;35.93;;;32.30;;
6027;SDS011;3042;43.194;27.646;2023-03-23T13:32:05;38.00;;;34.20;;
6027;SDS011;3042;43.194;27.646;2023-03-23T13:34:37;40.47;;;34.37;;
6027;SDS011;3042;43.194;27.646;2023-03-23T13:37:09;92.30;;;38.73;;
6027;SDS011;3042;43.194;27.646;2023-03-23T13:39:48;66.80;;;37.83;;
6027;SDS011;3042;43.194;27.646;2023-03-23T13:42:19;48.73;;;34.67;;
6027;SDS011;3042;43.194;27.646;2023-03-23T13:45:04;61.23;;;34.40;;
6027;SDS011;3042;43.194;27.646;2023-03-23T13:47:40;48.80;;;35.17;;
6027;SDS011;3042;43.194;27.646;2023-03-23T13:50:23;66.53;;;35.27;;
6027;SDS011;3042;43.194;27.646;2023-03-23T13:52:54;70.73;;;37.97;;
6027;SDS011;3042;43.194;27.646;2023-03-23T13:55:38;39.63;;;35.60;;
6027;SDS011;3042;43.194;27.646;2023-03-23T13:58:11;49.00;;;37.90;;
6027;SDS011;3042;43.194;27.646;2023-03-23T14:00:49;36.00;;;32.30;;
6027;SDS011;3042;43.194;27.646;2023-03-23T14:03:32;52.53;;;37.17;;
6027;SDS011;3042;43.194;27.646;2023-03-23T14:06:04;38.03;;;34.03;;
6027;SDS011;3042;43.194;27.646;2023-03-23T14:08:40;41.50;;;37.20;;
6027;SDS011;3042;43.194;27.646;2023-03-23T14:11:15;52.80;;;33.77;;
6027;SDS011;3042;43.194;27.646;2023-03-23T14:13:47;48.13;;;36.90;;
6027;SDS011;3042;43.194;27.646;2023-03-23T14:16:25;36.53;;;32.90;;
6027;SDS011;3042;43.194;27.646;2023-03-23T14:18:59;73.87;;;35.63;;
6027;SDS011;3042;43.194;27.646;2023-03-23T14:21:33;45.30;;;36.40;;
6027;SDS011;3042;43.194;27.646;2023-03-23T14:24:10;63.63;;;37.00;;
6027;SDS011;3042;43.194;27.646;2023-03-23T14:26:39;39.23;;;34.80;;
6027;SDS011;3042;43.194;27.646;2023-03-23T14:29:09;69.83;;;37.50;;
6027;SDS011;3042;43.194;27.646;2023-03-23T14:31:37;62.17;;;36.40;;
6027;SDS011;3042;43.194;27.646;2023-03-23T14:34:10;90.43;;;35.80;;
6027;SDS011;3042;43.194;27.646;2023-03-23T14:36:40;54.80;;;36.23;;
6027;SDS011;3042;43.194;27.646;2023-03-23T14:39:13;46.53;;;37.63;;
6027;SDS011;3042;43.194;27.646;2023-03-23T14:41:45;43.53;;;34.10;;
6027;SDS011;3042;43.194;27.646;2023-03-23T14:44:13;101.83;;;37.97;;
6027;SDS011;3042;43.194;27.646;2023-03-23T14:46:42;59.80;;;36.87;;
6027;SDS011;3042;43.194;27.646;2023-03-23T14:49:13;36.70;;;31.03;;
6027;SDS011;3042;43.194;27.646;2023-03-23T14:51:49;68.87;;;36.10;;
6027;SDS011;3042;43.194;27.646;2023-03-23T14:54:21;122.83;;;41.40;;
6027;SDS011;3042;43.194;27.646;2023-03-23T14:56:49;68.57;;;33.97;;
6027;SDS011;3042;43.194;27.646;2023-03-23T14:59:16;68.30;;;36.85;;
6027;SDS011;3042;43.194;27.646;2023-03-23T15:01:44;257.07;;;47.33;;
6027;SDS011;3042;43.194;27.646;2023-03-23T15:04:15;44.97;;;35.73;;